createdAt,value
2022-09-14T00:01:25.413Z,18.35
2022-09-14T00:03:59.776Z,18.27
2022-09-14T00:06:27.036Z,18.25
2022-09-14T00:08:55.223Z,18.27
2022-09-14T00:11:23.808Z,18.27
2022-09-14T00:13:52.021Z,18.27
2022-09-14T00:16:25.765Z,18.21
2022-09-14T00:18:54.405Z,18.20
2022-09-14T00:21:22.034Z,18.20
2022-09-14T00:23:48.768Z,18.20
2022-09-14T00:26:18.745Z,18.18
2022-09-14T00:28:51.088Z,18.18
2022-09-14T00:31:19.121Z,18.17
2022-09-14T00:33:48.113Z,18.16
2022-09-14T00:36:18.426Z,18.16
2022-09-14T00:38:46.899Z,18.15
2022-09-14T00:41:17.441Z,18.13
2022-09-14T00:44:10.653Z,18.12
2022-09-14T00:46:42.043Z,18.10
2022-09-14T00:49:17.026Z,18.08
2022-09-14T00:51:53.951Z,18.08
2022-09-14T00:54:21.227Z,18.07
2022-09-14T00:56:49.123Z,18.07
2022-09-14T00:59:20.208Z,18.06
2022-09-14T01:01:47.512Z,18.05
2022-09-14T01:04:14.370Z,18.04
2022-09-14T01:06:59.896Z,18.03
2022-09-14T01:09:52.198Z,18.03
2022-09-14T01:12:39.720Z,18.01
2022-09-14T01:15:24.571Z,17.99
2022-09-14T01:18:08.567Z,17.98
2022-09-14T01:20:44.038Z,17.96
2022-09-14T01:23:10.779Z,17.96
2022-09-14T01:26:02.133Z,17.91
2022-09-14T01:28:41.203Z,17.94
2022-09-14T01:31:32.165Z,17.92
2022-09-14T01:34:13.998Z,17.91
2022-09-14T01:36:45.620Z,17.91
2022-09-14T01:39:13.695Z,17.90
2022-09-14T01:41:42.492Z,17.90
2022-09-14T01:44:18.395Z,17.90
2022-09-14T01:46:48.802Z,17.90
2022-09-14T01:49:27.686Z,17.89
2022-09-14T01:52:02.813Z,17.88
2022-09-14T01:54:35.084Z,17.86
2022-09-14T01:57:40.053Z,17.86
2022-09-14T02:00:16.780Z,17.81
2022-09-14T02:02:47.124Z,17.82
2022-09-14T02:05:23.578Z,17.82
2022-09-14T02:07:50.405Z,17.81
2022-09-14T02:10:17.946Z,17.82
2022-09-14T02:12:45.180Z,17.81
2022-09-14T02:15:14.015Z,17.80
2022-09-14T02:17:40.945Z,17.79
2022-09-14T02:20:14.318Z,17.80
2022-09-14T02:22:41.077Z,17.78
2022-09-14T02:25:08.027Z,17.78
2022-09-14T02:27:34.783Z,17.78
2022-09-14T02:30:01.675Z,17.78
2022-09-14T02:32:39.439Z,17.78
2022-09-14T02:35:35.963Z,17.78
2022-09-14T02:38:18.801Z,17.75
2022-09-14T02:41:00.426Z,17.76
2022-09-14T02:43:42.156Z,17.75
2022-09-14T02:46:29.200Z,17.74
2022-09-14T02:48:55.980Z,17.73
2022-09-14T02:51:27.228Z,17.73
2022-09-14T02:54:16.137Z,17.74
2022-09-14T02:56:42.993Z,17.72
2022-09-14T02:59:09.617Z,17.72
2022-09-14T03:01:38.305Z,17.73
2022-09-14T03:04:04.964Z,17.72
2022-09-14T03:06:31.622Z,17.72
2022-09-14T03:08:58.840Z,17.72
2022-09-14T03:11:25.605Z,17.72
2022-09-14T03:13:52.315Z,17.71
2022-09-14T03:16:19.600Z,17.71
2022-09-14T03:18:46.286Z,17.71
2022-09-14T03:21:15.998Z,17.72
2022-09-14T03:23:48.888Z,17.71
2022-09-14T03:26:18.659Z,17.71
2022-09-14T03:28:45.688Z,17.71
2022-09-14T03:31:13.594Z,17.70
2022-09-14T03:33:40.671Z,17.71
2022-09-14T03:36:13.032Z,17.72
2022-09-14T03:38:46.298Z,17.70
2022-09-14T03:41:13.834Z,17.70
2022-09-14T03:43:41.764Z,17.69
2022-09-14T03:46:11.132Z,17.69
2022-09-14T03:48:38.522Z,17.70
2022-09-14T03:51:07.074Z,17.69
2022-09-14T03:53:34.427Z,17.69
2022-09-14T03:56:01.560Z,17.69
2022-09-14T03:58:32.080Z,17.69
2022-09-14T04:01:06.865Z,17.69
2022-09-14T04:03:34.141Z,17.69
2022-09-14T04:06:00.832Z,17.68
2022-09-14T04:08:27.608Z,17.69
2022-09-14T04:10:54.315Z,17.69
2022-09-14T04:13:20.962Z,17.68
2022-09-14T04:15:57.629Z,17.69
2022-09-14T04:18:24.592Z,17.67
2022-09-14T04:20:56.465Z,17.69
2022-09-14T04:23:23.504Z,17.69
2022-09-14T04:25:50.364Z,17.67
2022-09-14T04:28:20.411Z,17.67
2022-09-14T04:31:02.583Z,17.67
2022-09-14T04:33:34.003Z,17.68
2022-09-14T04:36:04.879Z,17.68
2022-09-14T04:38:32.993Z,17.69
2022-09-14T04:41:00.026Z,17.67
2022-09-14T04:43:27.433Z,17.66
2022-09-14T04:45:54.286Z,17.66
2022-09-14T04:48:21.040Z,17.66
2022-09-14T04:50:47.913Z,17.69
2022-09-14T04:53:14.505Z,17.73
2022-09-14T04:55:41.145Z,17.71
2022-09-14T04:58:07.928Z,17.74
2022-09-14T05:00:36.261Z,17.77
2022-09-14T05:03:04.913Z,17.79
2022-09-14T05:05:34.831Z,17.79
2022-09-14T05:08:01.620Z,17.82
2022-09-14T05:10:28.263Z,17.83
2022-09-14T05:12:54.936Z,17.84
2022-09-14T05:15:21.560Z,17.88
2022-09-14T05:17:48.167Z,17.90
2022-09-14T05:20:14.888Z,17.90
2022-09-14T05:22:41.624Z,17.94
2022-09-14T05:25:08.720Z,17.92
2022-09-14T05:27:35.418Z,17.96
2022-09-14T05:30:02.182Z,17.98
2022-09-14T05:32:28.876Z,17.96
2022-09-14T05:34:55.797Z,17.97
2022-09-14T05:37:22.433Z,17.98
2022-09-14T05:39:49.081Z,17.98
2022-09-14T05:42:15.786Z,18.02
2022-09-14T05:44:42.435Z,18.05
2022-09-14T05:47:09.061Z,18.06
2022-09-14T05:49:35.735Z,18.10
2022-09-14T05:52:02.605Z,18.11
2022-09-14T05:54:29.231Z,18.10
2022-09-14T05:56:55.954Z,18.15
2022-09-14T05:59:22.833Z,18.20
2022-09-14T06:01:49.777Z,18.22
2022-09-14T06:04:16.428Z,18.21
2022-09-14T06:06:52.265Z,18.21
2022-09-14T06:09:33.114Z,18.24
2022-09-14T06:12:00.015Z,18.26
2022-09-14T06:14:26.668Z,18.24
2022-09-14T06:16:53.381Z,18.28
2022-09-14T06:19:20.026Z,18.28
2022-09-14T06:21:46.693Z,18.25
2022-09-14T06:24:13.964Z,18.24
2022-09-14T06:26:40.987Z,18.17
2022-09-14T06:29:08.141Z,18.07
2022-09-14T06:31:34.795Z,18.22
2022-09-14T06:34:02.154Z,18.29
2022-09-14T06:36:29.266Z,18.32
2022-09-14T06:38:56.601Z,18.36
2022-09-14T06:41:26.995Z,18.37
2022-09-14T06:43:56.865Z,18.40
2022-09-14T06:46:27.054Z,18.41
2022-09-14T06:49:03.643Z,18.44
2022-09-14T06:51:33.137Z,18.48
2022-09-14T06:54:01.218Z,18.53
2022-09-14T06:56:38.802Z,18.54
2022-09-14T06:59:10.182Z,18.57
2022-09-14T07:01:37.464Z,18.59
2022-09-14T07:04:04.665Z,18.63
2022-09-14T07:06:38.950Z,18.65
2022-09-14T07:09:05.855Z,18.68
2022-09-14T07:11:32.833Z,18.73
2022-09-14T07:13:59.987Z,18.77
2022-09-14T07:16:27.477Z,18.80
2022-09-14T07:18:55.982Z,18.84
2022-09-14T07:21:23.440Z,18.87
2022-09-14T07:23:50.685Z,18.91
2022-09-14T07:26:18.947Z,18.94
2022-09-14T07:28:47.728Z,18.98
2022-09-14T07:31:27.356Z,19.01
2022-09-14T07:33:59.346Z,19.03
2022-09-14T07:36:29.546Z,19.05
2022-09-14T07:38:59.702Z,19.12
2022-09-14T07:41:28.893Z,19.16
2022-09-14T07:44:00.504Z,19.19
2022-09-14T07:46:33.325Z,19.24
2022-09-14T07:49:01.960Z,19.27
2022-09-14T07:51:30.219Z,19.30
2022-09-14T07:53:57.416Z,19.35
2022-09-14T07:56:25.993Z,19.36
2022-09-14T07:59:11.591Z,19.43
2022-09-14T08:01:47.089Z,19.44
2022-09-14T08:04:13.820Z,19.45
2022-09-14T08:06:40.903Z,19.49
2022-09-14T08:09:11.219Z,19.54
2022-09-14T08:11:38.248Z,19.58
2022-09-14T08:14:10.430Z,19.60
2022-09-14T08:16:41.485Z,19.62
2022-09-14T08:19:13.107Z,19.65
2022-09-14T08:21:44.178Z,19.67
2022-09-14T08:24:14.526Z,19.69
2022-09-14T08:26:41.283Z,19.78
2022-09-14T08:29:08.287Z,19.80
2022-09-14T08:31:39.101Z,19.84
2022-09-14T08:34:07.348Z,19.91
2022-09-14T08:36:37.200Z,19.94
2022-09-14T08:39:06.437Z,20.02
2022-09-14T08:41:48.969Z,20.01
2022-09-14T08:44:18.227Z,20.04
2022-09-14T08:46:51.888Z,20.08
2022-09-14T08:49:47.773Z,20.14
2022-09-14T08:52:35.705Z,20.15
2022-09-14T08:55:17.891Z,20.13
2022-09-14T08:57:53.023Z,20.15
2022-09-14T09:00:24.561Z,20.20
2022-09-14T09:03:09.282Z,20.21
2022-09-14T09:05:53.513Z,20.23
2022-09-14T09:08:22.769Z,20.27
2022-09-14T09:10:53.940Z,20.23
2022-09-14T09:13:29.190Z,20.26
2022-09-14T09:16:00.643Z,20.26
2022-09-14T09:18:34.866Z,20.33
2022-09-14T09:21:11.166Z,20.39
2022-09-14T09:23:38.175Z,20.47
2022-09-14T09:26:06.623Z,20.50
2022-09-14T09:28:33.929Z,20.59
2022-09-14T09:31:11.381Z,20.68
2022-09-14T09:33:39.469Z,20.68
2022-09-14T09:36:08.418Z,20.64
2022-09-14T09:38:35.400Z,20.51
2022-09-14T09:41:05.036Z,20.49
2022-09-14T09:43:48.790Z,20.53
2022-09-14T09:46:17.328Z,20.52
2022-09-14T09:48:45.529Z,20.46
2022-09-14T09:51:15.264Z,20.41
2022-09-14T09:54:14.381Z,20.48
2022-09-14T09:56:55.126Z,20.57
2022-09-14T09:59:37.306Z,20.73
2022-09-14T10:02:26.014Z,20.81
2022-09-14T10:04:57.331Z,20.85
2022-09-14T10:07:24.783Z,20.85
2022-09-14T10:10:06.827Z,20.90
2022-09-14T10:12:35.159Z,20.96
2022-09-14T10:15:14.924Z,20.94
2022-09-14T10:18:00.735Z,20.94
2022-09-14T10:20:27.815Z,20.98
2022-09-14T10:22:54.537Z,21.05
2022-09-14T10:25:26.240Z,21.11
2022-09-14T10:27:55.725Z,21.19
2022-09-14T10:30:23.713Z,21.25
2022-09-14T10:33:08.896Z,21.24
2022-09-14T10:35:53.970Z,21.36
2022-09-14T10:38:34.179Z,21.42
2022-09-14T10:41:10.326Z,21.49
2022-09-14T10:43:56.570Z,21.56
2022-09-14T10:46:43.891Z,21.59
2022-09-14T10:49:43.210Z,21.55
2022-09-14T10:52:44.125Z,21.66
2022-09-14T10:55:34.345Z,21.67
2022-09-14T10:58:43.164Z,21.83
2022-09-14T11:01:19.188Z,21.88
2022-09-14T11:04:07.706Z,21.86
2022-09-14T11:06:46.539Z,21.89
2022-09-14T11:09:22.284Z,21.93
2022-09-14T11:11:48.973Z,21.95
2022-09-14T11:14:37.536Z,22.02
2022-09-14T11:17:10.516Z,22.08
2022-09-14T11:20:01.079Z,22.14
2022-09-14T11:22:33.902Z,22.19
2022-09-14T11:25:23.962Z,22.23
2022-09-14T11:27:59.538Z,22.29
2022-09-14T11:30:40.960Z,22.41
2022-09-14T11:33:19.347Z,22.42
2022-09-14T11:35:50.977Z,22.45
2022-09-14T11:38:21.477Z,22.58
2022-09-14T11:41:03.250Z,22.65
2022-09-14T11:43:41.226Z,22.68
2022-09-14T11:46:12.142Z,22.68
2022-09-14T11:48:57.172Z,22.66
2022-09-14T11:51:46.682Z,22.70
2022-09-14T11:54:21.398Z,22.79
2022-09-14T11:56:58.357Z,22.73
2022-09-14T11:59:34.161Z,22.82
2022-09-14T12:02:23.514Z,22.86
2022-09-14T12:05:05.641Z,22.78
2022-09-14T12:07:47.174Z,22.79
2022-09-14T12:10:13.926Z,22.76
2022-09-14T12:12:53.780Z,22.66
2022-09-14T12:15:27.116Z,22.65
2022-09-14T12:17:55.219Z,22.69
2022-09-14T12:20:34.157Z,22.65
2022-09-14T12:23:37.502Z,22.69
2022-09-14T12:26:10.235Z,22.77
2022-09-14T12:28:39.459Z,22.80
2022-09-14T12:31:10.394Z,22.75
2022-09-14T12:33:37.494Z,22.69
2022-09-14T12:36:20.248Z,22.76
2022-09-14T12:38:49.921Z,22.69
2022-09-14T12:41:19.595Z,22.59
2022-09-14T12:43:49.260Z,22.63
2022-09-14T12:46:21.927Z,22.62
2022-09-14T12:48:48.928Z,22.49
2022-09-14T12:51:28.665Z,22.53
2022-09-14T12:54:02.814Z,22.64
2022-09-14T12:56:42.514Z,22.65
2022-09-14T12:59:10.176Z,22.74
2022-09-14T13:01:53.815Z,22.80
2022-09-14T13:04:33.087Z,22.73
2022-09-14T13:07:02.647Z,22.76
2022-09-14T13:09:31.922Z,22.63
2022-09-14T13:12:02.853Z,22.80
2022-09-14T13:14:33.368Z,22.85
2022-09-14T13:17:03.472Z,22.89
2022-09-14T13:19:33.238Z,22.66
2022-09-14T13:22:02.758Z,22.79
2022-09-14T13:24:42.959Z,22.60
2022-09-14T13:27:20.970Z,22.50
2022-09-14T13:29:49.199Z,22.64
2022-09-14T13:32:21.114Z,22.81
2022-09-14T13:34:48.013Z,22.78
2022-09-14T13:37:15.504Z,22.81
2022-09-14T13:39:51.074Z,22.76
2022-09-14T13:42:18.606Z,22.88
2022-09-14T13:44:46.778Z,22.86
2022-09-14T13:47:15.667Z,22.87
2022-09-14T13:49:44.410Z,22.85
2022-09-14T13:53:02.356Z,22.81
2022-09-14T13:55:44.444Z,22.89
2022-09-14T13:58:23.142Z,22.81
2022-09-14T14:01:04.630Z,22.80
2022-09-14T14:03:33.296Z,22.80
2022-09-14T14:06:22.807Z,22.84
2022-09-14T14:08:59.556Z,22.84
2022-09-14T14:11:29.124Z,22.78
2022-09-14T14:13:55.938Z,22.75
2022-09-14T14:16:26.519Z,22.72
2022-09-14T14:18:58.157Z,22.73
2022-09-14T14:21:28.152Z,22.69
2022-09-14T14:24:23.840Z,22.68
2022-09-14T14:26:53.003Z,22.66
2022-09-14T14:29:19.769Z,22.54
2022-09-14T14:31:47.346Z,22.54
2022-09-14T14:34:19.915Z,22.44
2022-09-14T14:36:48.189Z,22.41
2022-09-14T14:39:14.824Z,22.54
2022-09-14T14:41:41.603Z,22.51
2022-09-14T14:44:13.806Z,22.26
2022-09-14T14:46:42.125Z,22.29
2022-09-14T14:49:15.938Z,22.19
2022-09-14T14:51:42.820Z,22.30
2022-09-14T14:54:10.371Z,22.14
2022-09-14T14:56:40.053Z,22.12
2022-09-14T14:59:22.045Z,22.14
2022-09-14T15:01:49.435Z,21.87
2022-09-14T15:04:16.413Z,22.04
2022-09-14T15:06:43.090Z,21.91
2022-09-14T15:09:25.229Z,21.77
2022-09-14T15:11:54.740Z,21.79
2022-09-14T15:14:27.193Z,21.80
2022-09-14T15:16:57.995Z,21.53
2022-09-14T15:19:25.868Z,21.16
2022-09-14T15:21:53.179Z,21.47
2022-09-14T15:24:22.589Z,21.56
2022-09-14T15:26:49.272Z,21.49
2022-09-14T15:29:18.344Z,21.50
2022-09-14T15:31:46.182Z,21.59
2022-09-14T15:34:12.940Z,21.17
2022-09-14T15:36:47.925Z,21.33
2022-09-14T15:39:15.171Z,21.27
2022-09-14T15:41:43.374Z,21.20
2022-09-14T15:44:11.776Z,21.09
2022-09-14T15:46:40.243Z,21.08
2022-09-14T15:49:13.396Z,20.93
2022-09-14T15:51:43.368Z,21.15
2022-09-14T15:54:10.339Z,21.26
2022-09-14T15:56:39.962Z,21.13
2022-09-14T15:59:06.685Z,21.27
2022-09-14T16:01:33.507Z,21.35
2022-09-14T16:04:09.627Z,21.37
2022-09-14T16:06:38.648Z,21.42
2022-09-14T16:09:07.901Z,21.47
2022-09-14T16:11:36.220Z,21.44
2022-09-14T16:14:05.713Z,21.44
2022-09-14T16:16:33.658Z,21.28
2022-09-14T16:19:09.577Z,21.32
2022-09-14T16:21:37.024Z,21.26
2022-09-14T16:24:06.779Z,21.28
2022-09-14T16:26:36.572Z,21.29
2022-09-14T16:29:03.974Z,21.19
2022-09-14T16:31:37.169Z,21.23
2022-09-14T16:34:28.715Z,21.15
2022-09-14T16:36:58.961Z,21.17
2022-09-14T16:39:27.909Z,21.17
2022-09-14T16:41:55.938Z,21.15
2022-09-14T16:44:24.895Z,21.15
2022-09-14T16:46:53.328Z,21.13
2022-09-14T16:49:26.301Z,21.13
2022-09-14T16:51:54.724Z,21.10
2022-09-14T16:54:23.761Z,21.12
2022-09-14T16:56:51.020Z,21.07
2022-09-14T16:59:18.008Z,21.06
2022-09-14T17:01:48.675Z,21.03
2022-09-14T17:04:21.758Z,20.97
2022-09-14T17:06:50.190Z,20.74
2022-09-14T17:09:24.723Z,20.75
2022-09-14T17:11:52.292Z,20.63
2022-09-14T17:14:22.434Z,20.64
2022-09-14T17:16:49.887Z,20.72
2022-09-14T17:19:16.807Z,20.77
2022-09-14T17:21:45.231Z,20.77
2022-09-14T17:24:13.666Z,20.75
2022-09-14T17:26:41.600Z,20.76
2022-09-14T17:29:08.605Z,20.66
2022-09-14T17:31:38.326Z,20.68
2022-09-14T17:34:10.315Z,20.67
2022-09-14T17:36:38.323Z,20.62
2022-09-14T17:39:11.384Z,20.56
2022-09-14T17:41:40.066Z,20.56
2022-09-14T17:44:07.984Z,20.54
2022-09-14T17:46:37.407Z,20.53
2022-09-14T17:49:08.149Z,20.49
2022-09-14T17:51:37.323Z,20.44
2022-09-14T17:54:04.797Z,20.37
2022-09-14T17:56:32.131Z,20.34
2022-09-14T17:59:04.621Z,20.27
2022-09-14T18:01:32.572Z,20.28
2022-09-14T18:04:02.394Z,20.30
2022-09-14T18:06:32.096Z,20.23
2022-09-14T18:09:01.864Z,20.23
2022-09-14T18:11:29.088Z,20.21
2022-09-14T18:13:56.174Z,20.08
2022-09-14T18:16:24.240Z,20.11
2022-09-14T18:18:51.701Z,20.10
2022-09-14T18:21:19.450Z,20.06
2022-09-14T18:23:50.688Z,20.02
2022-09-14T18:26:48.949Z,20.01
2022-09-14T18:29:17.788Z,19.96
2022-09-14T18:31:44.913Z,19.95
2022-09-14T18:34:11.755Z,19.89
2022-09-14T18:36:38.795Z,19.82
2022-09-14T18:39:05.488Z,19.84
2022-09-14T18:41:34.179Z,19.72
2022-09-14T18:44:01.851Z,19.72
2022-09-14T18:46:28.829Z,19.59
2022-09-14T18:49:00.334Z,19.68
2022-09-14T18:51:28.978Z,19.67
2022-09-14T18:54:05.401Z,19.71
2022-09-14T18:56:33.835Z,19.64
2022-09-14T18:59:02.013Z,19.52
2022-09-14T19:01:29.171Z,19.58
2022-09-14T19:03:56.605Z,19.59
2022-09-14T19:06:23.305Z,19.54
2022-09-14T19:08:50.600Z,19.55
2022-09-14T19:11:23.344Z,19.51
2022-09-14T19:13:56.743Z,19.43
2022-09-14T19:16:23.727Z,19.46
2022-09-14T19:18:50.602Z,19.38
2022-09-14T19:21:24.263Z,19.41
2022-09-14T19:24:01.032Z,19.41
2022-09-14T19:26:33.652Z,19.41
2022-09-14T19:29:01.914Z,19.40
2022-09-14T19:31:30.758Z,19.36
2022-09-14T19:33:59.236Z,19.36
2022-09-14T19:36:27.407Z,19.35
2022-09-14T19:38:55.175Z,19.33
2022-09-14T19:41:22.084Z,19.32
2022-09-14T19:43:49.056Z,19.27
2022-09-14T19:46:18.396Z,19.28
2022-09-14T19:48:46.297Z,19.23
2022-09-14T19:51:19.771Z,19.25
2022-09-14T19:53:48.071Z,19.21
2022-09-14T19:56:17.499Z,19.18
2022-09-14T19:58:47.537Z,19.17
2022-09-14T20:01:16.253Z,19.18
2022-09-14T20:03:44.906Z,19.17
2022-09-14T20:06:19.740Z,19.15
2022-09-14T20:08:47.801Z,19.14
2022-09-14T20:11:20.092Z,19.13
2022-09-14T20:13:48.689Z,19.09
2022-09-14T20:16:17.903Z,19.00
2022-09-14T20:18:46.259Z,18.99
2022-09-14T20:21:16.372Z,19.02
2022-09-14T20:24:04.357Z,18.99
2022-09-14T20:26:30.655Z,18.98
2022-09-14T20:29:00.085Z,18.97
2022-09-14T20:31:28.258Z,18.97
2022-09-14T20:33:55.746Z,18.95
2022-09-14T20:36:23.645Z,18.94
2022-09-14T20:38:54.152Z,18.92
2022-09-14T20:41:23.231Z,18.93
2022-09-14T20:43:50.025Z,18.90
2022-09-14T20:46:19.808Z,18.89
2022-09-14T20:48:48.277Z,18.87
2022-09-14T20:51:20.584Z,18.86
2022-09-14T20:53:48.274Z,18.82
2022-09-14T20:56:20.152Z,18.82
2022-09-14T20:58:47.846Z,18.81
2022-09-14T21:01:17.320Z,18.80
2022-09-14T21:03:45.829Z,18.79
2022-09-14T21:06:15.796Z,18.78
2022-09-14T21:08:42.838Z,18.76
2022-09-14T21:11:15.861Z,18.77
2022-09-14T21:13:43.313Z,18.75
2022-09-14T21:16:29.986Z,18.74
2022-09-14T21:18:59.419Z,18.71
2022-09-14T21:21:26.893Z,18.71
2022-09-14T21:23:55.923Z,18.70
2022-09-14T21:26:23.281Z,18.67
2022-09-14T21:28:57.836Z,18.68
2022-09-14T21:31:26.948Z,18.66
2022-09-14T21:33:59.211Z,18.66
2022-09-14T21:36:28.711Z,18.65
2022-09-14T21:38:57.521Z,18.63
2022-09-14T21:41:26.429Z,18.62
2022-09-14T21:43:53.908Z,18.58
2022-09-14T21:46:20.927Z,18.50
2022-09-14T21:48:47.945Z,18.55
2022-09-14T21:51:20.826Z,18.57
2022-09-14T21:53:53.125Z,18.53
2022-09-14T21:56:22.206Z,18.49
2022-09-14T21:58:53.709Z,18.44
2022-09-14T22:01:22.047Z,18.50
2022-09-14T22:03:51.741Z,18.49
2022-09-14T22:06:21.400Z,18.51
2022-09-14T22:08:49.339Z,18.50
2022-09-14T22:11:22.424Z,18.50
2022-09-14T22:13:59.004Z,18.49
2022-09-14T22:16:28.612Z,18.48
2022-09-14T22:18:59.985Z,18.46
2022-09-14T22:21:29.114Z,18.45
2022-09-14T22:24:02.295Z,18.40
2022-09-14T22:26:31.575Z,18.45
2022-09-14T22:28:59.913Z,18.43
2022-09-14T22:31:28.575Z,18.43
2022-09-14T22:33:57.003Z,18.33
2022-09-14T22:36:24.943Z,18.22
2022-09-14T22:38:54.600Z,18.24
2022-09-14T22:41:26.938Z,18.28
2022-09-14T22:43:54.597Z,18.18
2022-09-14T22:46:23.269Z,18.13
2022-09-14T22:48:51.154Z,18.07
2022-09-14T22:51:20.778Z,18.13
2022-09-14T22:53:47.878Z,18.21
2022-09-14T22:56:27.321Z,18.18
2022-09-14T22:58:55.305Z,18.18
2022-09-14T23:01:26.824Z,18.18
2022-09-14T23:04:13.610Z,18.08
2022-09-14T23:06:43.396Z,17.92
2022-09-14T23:09:18.479Z,18.03
2022-09-14T23:11:45.710Z,18.07
2022-09-14T23:14:14.261Z,18.01
2022-09-14T23:16:42.211Z,18.04
2022-09-14T23:19:13.761Z,18.05
2022-09-14T23:21:40.503Z,18.04
2022-09-14T23:24:07.993Z,18.02
2022-09-14T23:26:35.219Z,18.05
2022-09-14T23:29:05.163Z,18.07
2022-09-14T23:31:33.084Z,18.04
2022-09-14T23:34:01.901Z,18.07
2022-09-14T23:36:29.690Z,18.06
2022-09-14T23:38:57.192Z,18.05
2022-09-14T23:41:26.977Z,18.07
2022-09-14T23:43:55.144Z,18.01
2022-09-14T23:46:23.128Z,18.06
2022-09-14T23:48:49.997Z,17.99
2022-09-14T23:51:17.393Z,18.02
2022-09-14T23:53:44.395Z,17.96
2022-09-14T23:56:11.755Z,17.78
2022-09-14T23:58:42.960Z,17.88
